Time;durP1;ratioP1;P1;durP2;ratioP2;P2;SDS_P1;SDS_P2;PMS_P1;PMS_P2;Temp;Humidity;BMP_temperature;BMP_pressure;BME280_temperature;BME280_humidity;BME280_pressure;Samples;Min_cycle;Max_cycle;Signal;HPM_P1;HPM_P2
2024/03/25 00:00:20;;;;;;;33.83;31.42;;;;;;;7.32;100.00;99779.81;5088735;28;20048;-69
2024/03/25 00:02:46;;;;;;;35.13;32.58;;;;;;;7.14;100.00;99784.91;5085165;28;20067;-70
2024/03/25 00:05:15;;;;;;;32.65;30.25;;;;;;;7.11;100.00;99778.22;5087106;28;20504;-69
2024/03/25 00:07:41;;;;;;;32.08;29.60;;;;;;;6.89;100.00;99766.25;5086405;28;20056;-70
2024/03/25 00:10:09;;;;;;;32.05;29.65;;;;;;;6.96;100.00;99771.50;5083829;28;20088;-71
2024/03/25 00:12:36;;;;;;;34.30;31.80;;;;;;;6.65;100.00;99773.75;5087060;28;20051;-70
2024/03/25 00:15:04;;;;;;;30.90;28.60;;;;;;;6.85;100.00;99767.69;5086936;28;20052;-72
2024/03/25 00:17:31;;;;;;;33.20;30.70;;;;;;;6.90;100.00;99773.16;5086063;28;20541;-70
2024/03/25 00:19:58;;;;;;;38.10;35.40;;;;;;;7.08;100.00;99776.00;5082080;28;20774;-69
2024/03/25 00:22:25;;;;;;;33.28;30.98;;;;;;;7.01;100.00;99766.44;5085979;28;20075;-69
2024/03/25 00:24:52;;;;;;;33.58;31.13;;;;;;;7.22;100.00;99768.84;5086038;28;20056;-69
2024/03/25 00:27:19;;;;;;;32.78;30.38;;;;;;;7.01;100.00;99764.59;5085358;28;20056;-69
2024/03/25 00:29:47;;;;;;;32.38;29.98;;;;;;;7.13;100.00;99754.22;5084790;28;20315;-69
2024/03/25 00:32:14;;;;;;;32.60;30.20;;;;;;;6.93;100.00;99754.28;5085377;28;20052;-69
2024/03/25 00:34:41;;;;;;;36.60;33.80;;;;;;;6.76;100.00;99761.00;5085074;28;20082;-69
2024/03/25 00:37:08;;;;;;;37.42;34.75;;;;;;;6.66;100.00;99750.84;5085962;28;20047;-68
2024/03/25 00:39:35;;;;;;;34.85;32.35;;;;;;;6.97;100.00;99757.31;5086376;28;20051;-69
2024/03/25 00:42:01;;;;;;;33.42;31.02;;;;;;;6.76;100.00;99743.31;5085828;28;20059;-69
2024/03/25 00:44:28;;;;;;;34.10;31.60;;;;;;;6.96;100.00;99753.03;5086216;28;20070;-68
2024/03/25 00:46:56;;;;;;;32.75;30.35;;;;;;;6.86;100.00;99754.25;5081531;28;20044;-69
2024/03/25 00:49:23;;;;;;;30.42;28.27;;;;;;;6.54;100.00;99758.56;5085806;28;20048;-69
2024/03/25 00:51:49;;;;;;;32.05;29.70;;;;;;;6.71;100.00;99752.88;5084753;28;20051;-69
2024/03/25 00:54:17;;;;;;;30.55;28.25;;;;;;;6.75;100.00;99746.19;5083444;28;20134;-69
2024/03/25 00:56:44;;;;;;;32.75;30.45;;;;;;;6.63;100.00;99748.63;5085512;28;20051;-69
2024/03/25 00:59:11;;;;;;;33.90;31.50;;;;;;;6.71;100.00;99740.47;5084555;28;20048;-70
2024/03/25 01:01:37;;;;;;;30.23;27.95;;;;;;;6.96;100.00;99740.66;5085747;28;20111;-70
2024/03/25 01:04:05;;;;;;;30.20;28.10;;;;;;;6.81;100.00;99738.25;5087121;28;20489;-71
2024/03/25 01:06:32;;;;;;;30.52;28.33;;;;;;;6.72;100.00;99739.47;5090266;28;20051;-70
2024/03/25 01:08:59;;;;;;;37.22;34.72;;;;;;;6.71;100.00;99737.03;5090677;28;20048;-70
2024/03/25 01:11:25;;;;;;;34.97;32.47;;;;;;;6.69;100.00;99736.41;5087546;28;20048;-70
2024/03/25 01:13:52;;;;;;;32.33;30.02;;;;;;;6.63;100.00;99738.88;5091180;28;20051;-69
2024/03/25 01:16:18;;;;;;;31.55;29.17;;;;;;;6.59;100.00;99737.63;5090330;28;20215;-71
2024/03/25 01:18:45;;;;;;;30.05;27.85;;;;;;;6.79;100.00;99739.47;5091215;28;20184;-71
2024/03/25 01:21:14;;;;;;;32.00;29.60;;;;;;;6.32;100.00;99736.81;5086501;28;20587;-71
2024/03/25 01:23:40;;;;;;;31.65;29.35;;;;;;;6.35;100.00;99740.88;5090677;28;20496;-70
2024/03/25 01:26:08;;;;;;;39.97;37.28;;;;;;;6.40;100.00;99738.47;5090272;28;20040;-70
2024/03/25 01:28:34;;;;;;;33.67;31.17;;;;;;;6.24;100.00;99729.13;5090864;28;20071;-70
2024/03/25 01:31:01;;;;;;;33.45;30.85;;;;;;;6.42;100.00;99739.09;5089462;28;20519;-71
2024/03/25 01:33:27;;;;;;;36.75;34.10;;;;;;;6.58;100.00;99738.66;5086260;28;20118;-71
2024/03/25 01:35:55;;;;;;;35.15;32.75;;;;;;;6.68;100.00;99734.81;5089710;28;20048;-71
2024/03/25 01:38:23;;;;;;;30.95;28.75;;;;;;;6.38;100.00;99737.84;5090839;28;20447;-70
2024/03/25 01:40:50;;;;;;;31.65;29.35;;;;;;;6.51;100.00;99734.41;5089586;28;20052;-72
2024/03/25 01:43:16;;;;;;;35.88;33.38;;;;;;;6.45;100.00;99736.03;5090691;28;20520;-70
2024/03/25 01:45:43;;;;;;;40.95;38.17;;;;;;;6.47;100.00;99738.47;5089742;28;20051;-71
2024/03/25 01:48:12;;;;;;;31.63;28.95;;;;;;;6.43;100.00;99733.59;5084140;28;20048;-70
2024/03/25 01:50:43;;;;;;;29.60;27.30;;;;;;;7.31;100.00;99738.53;5088978;28;20708;-70
2024/03/25 01:53:09;;;;;;;33.83;31.42;;;;;;;6.83;100.00;99756.50;5089994;28;20134;-71
2024/03/25 01:55:39;;;;;;;34.00;31.50;;;;;;;6.73;100.00;99758.75;5090248;28;20117;-71
2024/03/25 01:58:11;;;;;;;33.50;31.10;;;;;;;7.13;100.00;99763.97;5089464;28;20810;-72
2024/03/25 02:00:40;;;;;;;35.13;32.70;;;;;;;6.31;100.00;99777.41;5089361;28;20137;-70
2024/03/25 02:03:06;;;;;;;32.42;29.92;;;;;;;6.61;100.00;99779.66;5084587;28;20052;-70
2024/03/25 02:05:35;;;;;;;36.17;33.47;;;;;;;6.16;100.00;99779.41;5090436;28;20056;-71
2024/03/25 02:08:02;;;;;;;32.92;30.52;;;;;;;6.15;100.00;99783.88;5084553;28;20055;-72
2024/03/25 02:10:33;;;;;;;40.55;37.72;;;;;;;6.55;100.00;99785.75;5089143;28;20048;-72
2024/03/25 02:13:01;;;;;;;38.58;35.92;;;;;;;6.35;100.00;99793.63;5089425;28;20135;-70
2024/03/25 02:15:31;;;;;;;36.50;33.90;;;;;;;5.95;100.00;99796.19;5089905;28;20056;-71
2024/03/25 02:17:57;;;;;;;35.28;32.78;;;;;;;6.69;100.00;99792.66;5089187;28;20043;-70
2024/03/25 02:20:26;;;;;;;37.80;35.20;;;;;;;6.58;100.00;99790.63;5088533;28;20048;-70
2024/03/25 02:22:52;;;;;;;33.72;31.33;;;;;;;6.83;100.00;99783.72;5089779;28;20822;-72
2024/03/25 02:25:19;;;;;;;33.97;31.67;;;;;;;6.15;100.00;99783.88;5089401;28;20055;-71
2024/03/25 02:27:46;;;;;;;36.53;34.03;;;;;;;6.13;100.00;99771.91;5088909;28;20106;-70
2024/03/25 02:30:14;;;;;;;35.45;32.95;;;;;;;6.24;100.00;99789.78;5089005;28;20048;-68
2024/03/25 02:32:41;;;;;;;33.97;31.67;;;;;;;6.31;100.00;99800.31;5087497;28;20125;-69
2024/03/25 02:35:11;;;;;;;35.58;33.28;;;;;;;6.14;100.00;99794.59;5087770;28;20447;-69
2024/03/25 02:37:38;;;;;;;36.13;33.72;;;;;;;6.00;100.00;99792.97;5086967;28;20517;-71
2024/03/25 02:40:09;;;;;;;33.67;31.38;;;;;;;6.41;100.00;99792.81;5089382;28;20487;-69
2024/03/25 02:42:35;;;;;;;36.08;33.65;;;;;;;5.95;100.00;99791.72;5088540;28;20040;-69
2024/03/25 02:45:05;;;;;;;38.03;35.53;;;;;;;6.22;100.00;99791.78;5086227;28;20518;-69
2024/03/25 02:47:31;;;;;;;34.95;32.70;;;;;;;5.78;100.00;99797.50;5082989;28;20051;-70
2024/03/25 02:49:58;;;;;;;35.38;33.08;;;;;;;5.82;100.00;99804.00;5085407;28;20053;-70
2024/03/25 02:52:24;;;;;;;37.60;35.20;;;;;;;6.58;100.00;99796.72;5087603;28;20048;-71
2024/03/25 02:54:54;;;;;;;40.33;37.88;;;;;;;7.17;100.00;99794.25;5084857;28;20048;-71
2024/03/25 02:57:20;;;;;;;34.30;32.30;;;;;;;6.39;100.00;99781.69;5088864;28;20048;-70
2024/03/25 02:59:47;;;;;;;35.10;32.80;;;;;;;5.90;100.00;99795.91;5088090;28;20543;-71
2024/03/25 03:02:14;;;;;;;34.88;32.58;;;;;;;6.19;100.00;99786.91;5089230;28;20094;-70
2024/03/25 03:04:41;;;;;;;41.42;38.72;;;;;;;6.58;100.00;99782.72;5088347;28;20131;-71
2024/03/25 03:07:07;;;;;;;38.67;36.08;;;;;;;6.14;100.00;99769.06;5088631;28;20553;-71
2024/03/25 03:09:34;;;;;;;34.55;32.25;;;;;;;5.93;100.00;99777.09;5088521;28;20047;-72
2024/03/25 03:12:00;;;;;;;39.38;36.67;;;;;;;6.57;100.00;99775.81;5089112;28;20482;-72
2024/03/25 03:14:28;;;;;;;38.90;36.50;;;;;;;6.48;100.00;99772.56;5088446;28;20063;-71
2024/03/25 03:16:57;;;;;;;43.08;40.08;;;;;;;6.76;100.00;99761.81;5089197;28;20048;-71
2024/03/25 03:19:26;;;;;;;37.92;35.53;;;;;;;6.19;100.00;99757.91;5086722;28;20726;-71
2024/03/25 03:21:52;;;;;;;39.58;36.92;;;;;;;6.52;100.00;99763.22;5088754;28;20043;-71
2024/03/25 03:24:20;;;;;;;37.92;35.42;;;;;;;5.86;100.00;99769.16;5087217;28;20067;-70
2024/03/25 03:26:46;;;;;;;43.42;40.78;;;;;;;5.76;100.00;99768.72;5086905;28;20612;-69
2024/03/25 03:29:13;;;;;;;42.78;39.88;;;;;;;5.85;100.00;99767.53;5086003;28;20064;-70
2024/03/25 03:31:39;;;;;;;39.50;36.80;;;;;;;6.15;100.00;99769.88;5083537;28;20496;-70
2024/03/25 03:34:06;;;;;;;31.48;29.27;;;;;;;5.70;100.00;99786.13;5087809;28;20056;-71
2024/03/25 03:36:33;;;;;;;33.60;31.20;;;;;;;5.81;100.00;99786.56;5088829;28;20135;-71
2024/03/25 03:39:01;;;;;;;37.17;34.60;;;;;;;5.77;100.00;99791.41;5087736;28;20052;-70
2024/03/25 03:41:27;;;;;;;35.47;32.92;;;;;;;6.66;100.00;99787.78;5088279;28;20160;-69
2024/03/25 03:43:54;;;;;;;31.58;29.27;;;;;;;5.99;100.00;99793.94;5086644;28;20052;-69
2024/03/25 03:46:20;;;;;;;36.17;33.47;;;;;;;5.74;100.00;99786.53;5087441;28;20573;-70
2024/03/25 03:48:47;;;;;;;51.78;48.17;;;;;;;6.11;100.00;99790.56;5082366;28;20051;-70
2024/03/25 03:51:13;;;;;;;35.47;32.97;;;;;;;5.91;100.00;99787.81;5084990;28;20052;-69
2024/03/25 03:53:41;;;;;;;33.70;31.30;;;;;;;6.03;100.00;99789.94;5086612;28;20164;-69
2024/03/25 03:56:08;;;;;;;37.20;34.58;;;;;;;5.61;100.00;99789.94;5085958;28;20052;-70
2024/03/25 03:58:35;;;;;;;44.30;41.33;;;;;;;5.70;100.00;99796.66;5085600;28;20062;-69
2024/03/25 04:01:01;;;;;;;42.75;39.75;;;;;;;5.77;100.00;99799.31;5084487;28;20188;-69
2024/03/25 04:03:28;;;;;;;37.47;34.85;;;;;;;5.53;100.00;99797.19;5083933;28;20494;-69
2024/03/25 04:05:55;;;;;;;45.00;41.90;;;;;;;5.49;100.00;99800.22;5086181;28;20056;-69
2024/03/25 04:08:22;;;;;;;41.10;38.10;;;;;;;5.51;100.00;99800.03;5085926;28;20877;-69
2024/03/25 04:10:50;;;;;;;35.47;32.88;;;;;;;5.51;100.00;99807.94;5087419;28;20048;-71
2024/03/25 04:13:17;;;;;;;34.72;32.13;;;;;;;5.26;100.00;99807.56;5082517;28;20060;-69
2024/03/25 04:15:43;;;;;;;40.33;37.20;;;;;;;5.38;100.00;99807.84;5086416;28;20052;-69
2024/03/25 04:18:11;;;;;;;34.47;32.08;;;;;;;5.56;100.00;99808.13;5086618;28;20048;-70
2024/03/25 04:20:38;;;;;;;36.03;33.42;;;;;;;5.65;100.00;99806.97;5088350;28;20415;-71
2024/03/25 04:23:07;;;;;;;29.83;27.83;;;;;;;5.23;100.00;99808.78;5088340;28;20420;-71
2024/03/25 04:25:33;;;;;;;37.10;34.58;;;;;;;5.55;100.00;99811.78;5087899;28;20435;-70
2024/03/25 04:28:02;;;;;;;33.88;31.67;;;;;;;5.71;100.00;99811.47;5085061;28;20051;-71
2024/03/25 04:30:28;;;;;;;42.45;38.92;;;;;;;6.26;100.00;99811.47;5083995;28;20511;-69
2024/03/25 04:32:57;;;;;;;46.67;42.25;;;;;;;5.53;100.00;99813.81;5083628;28;20081;-71
2024/03/25 04:35:23;;;;;;;47.45;42.75;;;;;;;5.33;100.00;99805.00;5087178;28;20048;-72
